Weather at Muckle Flugga Helipad

Public forecast

Using degrees Celsius for public forecast. Weather courtesy of forecast.io.

Closest aviation weather report (METAR) to Muckle Flugga Helipad

Closest report is Sumburgh Airport, 59.9 nm (110.9 km) SSW.

2024/05/25 03:50 (retrieved 25 minutes ago)

EGPB 250350Z AUTO 16007KT 9999 OVC010/// 12/10 Q1021

Closest aviation forecast (TAF) to Muckle Flugga Helipad

Forecast is more than 12 hours old.

Closest forecast is Quaqtaq Airport, 1,910.2 nm (3,537.8 km) WNW.

2024/05/24 16:09 Ammendment (retrieved 12 hours ago)

TAF AMD CYHA 241607Z 2416/2421 34005KT P6SM BKN012 OVC015 TEMPO 2416/2419 P6SM -SG BKN008 OVC012 RMK NXT FCST BY 251400Z